Anwaar Alnaser — 5AXD — position and weather

sailwx.info

Track history (hours):
 
Tides and Currents Weather Stations Pressure Air Temp Water Temp Dewpoint Dewpoint Depression Visibility Wind Speed Wind Dir Waves Ship Positions

Anwaar Alnaser

Last reported at 2017-Feb-10 06:33 UTC. Time now 2017-Feb-23 11:44 UTC.
Position N 37°42' E 023°40'.
Warning: this ship's position is 13 days out of date.

Length 165 m; draft 8 m.

Type: Tanker. MMSI: 642122018.

Date/timePositionNaut miles runAvg speedWind from/ knotsBaromVisibWave heightAir tempDewpointWater temp
2017-Feb-10 06:33N 37°42' E 023°40'1212.3
2017-Feb-10 05:33N 37°52' E 023°32'0 0.2
2017-Feb-10 04:33N 37°52' E 023°32'0 0.0
2017-Feb-10 03:32N 37°52' E 023°32'0 0.0
2017-Feb-10 02:32N 37°52' E 023°32'0 0.0
2017-Feb-10 01:33N 37°52' E 023°32'0 0.0
2017-Feb-10 00:32N 37°52' E 023°32'0 0.0
2017-Feb-09 23:32N 37°52' E 023°32'0 0.0
2017-Feb-09 22:33N 37°52' E 023°32'0 0.0
2017-Feb-09 21:31N 37°52' E 023°32'0 0.0
2017-Feb-09 20:31N 37°52' E 023°32'0 0.0
2017-Feb-09 19:32N 37°52' E 023°32'0 0.0
2017-Feb-09 18:32N 37°52' E 023°32'0 0.0
2017-Feb-09 17:32N 37°52' E 023°32'0 0.0
2017-Feb-09 16:30N 37°52' E 023°32'0 0.0
2017-Feb-09 15:33N 37°52' E 023°32'0 0.1
2017-Feb-09 14:33N 37°52' E 023°32'0 0.0
2017-Feb-09 13:33N 37°52' E 023°32'0 0.1
2017-Feb-09 12:32N 37°52' E 023°32'0 0.0
2017-Feb-09 11:32N 37°52' E 023°32'0 0.0
2017-Feb-09 10:29N 37°52' E 023°32'0 0.0
2017-Feb-09 09:29N 37°52' E 023°32'0 0.0
2017-Feb-09 08:32N 37°52' E 023°32'0 0.0
2017-Feb-09 07:32N 37°52' E 023°32'0 0.1
2017-Feb-09 06:32N 37°52' E 023°32'0 0.0
2017-Feb-09 05:32N 37°52' E 023°32'0 0.0
2017-Feb-09 04:32N 37°52' E 023°32'0 0.0
2017-Feb-09 03:32N 37°52' E 023°32'0 0.0
2017-Feb-09 02:29N 37°52' E 023°32'0 0.0
2017-Feb-09 01:32N 37°52' E 023°32'0 0.0
2017-Feb-09 00:26N 37°52' E 023°32'0 0.0
2017-Feb-08 23:32N 37°52' E 023°32'0 0.0
2017-Feb-08 22:32N 37°52' E 023°32'0 0.0
2017-Feb-08 21:32N 37°52' E 023°32'0 0.0
2017-Feb-08 20:32N 37°52' E 023°32'0 0.0
2017-Feb-08 19:29N 37°52' E 023°32'0 0.0
2017-Feb-08 18:32N 37°52' E 023°32'0 0.0
2017-Feb-08 17:32N 37°52' E 023°32'0 0.0
2017-Feb-08 16:32N 37°52' E 023°32'0 0.0
2017-Feb-08 15:28N 37°52' E 023°32'0 0.0
2017-Feb-08 14:25N 37°52' E 023°32'0 0.1
2017-Feb-08 13:28N 37°52' E 023°32'0 0.0
2017-Feb-08 12:31N 37°52' E 023°32'0 0.0
2017-Feb-08 11:04N 37°52' E 023°32'0 0.0
2017-Feb-08 10:31N 37°52' E 023°32'0 0.0
2017-Feb-08 09:31N 37°52' E 023°32'0 0.1
2017-Feb-08 08:31N 37°52' E 023°32'0 0.0
2017-Feb-08 07:28N 37°52' E 023°32'1 1.3
2017-Feb-08 06:33N 37°52' E 023°34'1211.9
2017-Feb-08 05:34N 37°44' E 023°44'  
2017-Feb-04 18:31N 34°25' E 033°04'1313.8
2017-Feb-04 17:33N 34°36' E 033°13'8 0.7
2017-Feb-04 07:19N 34°42' E 033°18'1 0.0
2017-Feb-03 06:34N 34°42' E 033°18'2 0.1
2017-Feb-02 15:26N 34°41' E 033°20'8 9.3
2017-Feb-02 14:33N 34°36' E 033°13'1413.8
2017-Feb-02 13:33N 34°24' E 033°03'49312.2
2017-Jan-31 21:08N 37°39' E 023°43'814.1
2017-Jan-31 20:33N 37°46' E 023°38'9 8.7
2017-Jan-31 19:33N 37°52' E 023°30'0 0.1
2017-Jan-31 18:31N 37°52' E 023°30'0 0.0
2017-Jan-31 17:31N 37°52' E 023°30'0 0.0
2017-Jan-31 16:31N 37°52' E 023°30'0 0.0
2017-Jan-31 15:28N 37°52' E 023°30'0 0.0
2017-Jan-31 14:31N 37°52' E 023°30'0 0.0
2017-Jan-31 13:28N 37°52' E 023°30'0 0.0
2017-Jan-31 12:25N 37°52' E 023°30'0 0.0
2017-Jan-31 11:31N 37°52' E 023°30'0 0.0
2017-Jan-31 10:31N 37°52' E 023°30'0 0.0
2017-Jan-31 09:28N 37°52' E 023°30'0 0.0
2017-Jan-31 08:31N 37°52' E 023°30'0 0.0
2017-Jan-31 07:31N 37°52' E 023°30'  
Track history (hours):
 
Tides and Currents Weather Stations Pressure Air Temp Water Temp Dewpoint Dewpoint Depression Visibility Wind Speed Wind Dir Waves Ship Positions

Anwaar Alnaser

Last reported at 2017-Feb-10 06:33 UTC. Time now 2017-Feb-23 11:44 UTC.
Position N 37°42' E 023°40'.
Warning: this ship's position is 13 days out of date.

Length 165 m; draft 8 m.

Type: Tanker. MMSI: 642122018.

Date/timePositionNaut miles runAvg speedWind from/ knotsBaromVisibWave heightAir tempDewpointWater temp
2017-Feb-10 06:33N 37°42' E 023°40'1212.3
2017-Feb-10 05:33N 37°52' E 023°32'0 0.2
2017-Feb-10 04:33N 37°52' E 023°32'0 0.0
2017-Feb-10 03:32N 37°52' E 023°32'0 0.0
2017-Feb-10 02:32N 37°52' E 023°32'0 0.0
2017-Feb-10 01:33N 37°52' E 023°32'0 0.0
2017-Feb-10 00:32N 37°52' E 023°32'0 0.0
2017-Feb-09 23:32N 37°52' E 023°32'0 0.0
2017-Feb-09 22:33N 37°52' E 023°32'0 0.0
2017-Feb-09 21:31N 37°52' E 023°32'0 0.0
2017-Feb-09 20:31N 37°52' E 023°32'0 0.0
2017-Feb-09 19:32N 37°52' E 023°32'0 0.0
2017-Feb-09 18:32N 37°52' E 023°32'0 0.0
2017-Feb-09 17:32N 37°52' E 023°32'0 0.0
2017-Feb-09 16:30N 37°52' E 023°32'0 0.0
2017-Feb-09 15:33N 37°52' E 023°32'0 0.1
2017-Feb-09 14:33N 37°52' E 023°32'0 0.0
2017-Feb-09 13:33N 37°52' E 023°32'0 0.1
2017-Feb-09 12:32N 37°52' E 023°32'0 0.0
2017-Feb-09 11:32N 37°52' E 023°32'0 0.0
2017-Feb-09 10:29N 37°52' E 023°32'0 0.0
2017-Feb-09 09:29N 37°52' E 023°32'0 0.0
2017-Feb-09 08:32N 37°52' E 023°32'0 0.0
2017-Feb-09 07:32N 37°52' E 023°32'0 0.1
2017-Feb-09 06:32N 37°52' E 023°32'0 0.0
2017-Feb-09 05:32N 37°52' E 023°32'0 0.0
2017-Feb-09 04:32N 37°52' E 023°32'0 0.0
2017-Feb-09 03:32N 37°52' E 023°32'0 0.0
2017-Feb-09 02:29N 37°52' E 023°32'0 0.0
2017-Feb-09 01:32N 37°52' E 023°32'0 0.0
2017-Feb-09 00:26N 37°52' E 023°32'0 0.0
2017-Feb-08 23:32N 37°52' E 023°32'0 0.0
2017-Feb-08 22:32N 37°52' E 023°32'0 0.0
2017-Feb-08 21:32N 37°52' E 023°32'0 0.0
2017-Feb-08 20:32N 37°52' E 023°32'0 0.0
2017-Feb-08 19:29N 37°52' E 023°32'0 0.0
2017-Feb-08 18:32N 37°52' E 023°32'0 0.0
2017-Feb-08 17:32N 37°52' E 023°32'0 0.0
2017-Feb-08 16:32N 37°52' E 023°32'0 0.0
2017-Feb-08 15:28N 37°52' E 023°32'0 0.0
2017-Feb-08 14:25N 37°52' E 023°32'0 0.1
2017-Feb-08 13:28N 37°52' E 023°32'0 0.0
2017-Feb-08 12:31N 37°52' E 023°32'0 0.0
2017-Feb-08 11:04N 37°52' E 023°32'0 0.0
2017-Feb-08 10:31N 37°52' E 023°32'0 0.0
2017-Feb-08 09:31N 37°52' E 023°32'0 0.1
2017-Feb-08 08:31N 37°52' E 023°32'0 0.0
2017-Feb-08 07:28N 37°52' E 023°32'1 1.3
2017-Feb-08 06:33N 37°52' E 023°34'1211.9
2017-Feb-08 05:34N 37°44' E 023°44'  
2017-Feb-04 18:31N 34°25' E 033°04'1313.8
2017-Feb-04 17:33N 34°36' E 033°13'8 0.7
2017-Feb-04 07:19N 34°42' E 033°18'1 0.0
2017-Feb-03 06:34N 34°42' E 033°18'2 0.1
2017-Feb-02 15:26N 34°41' E 033°20'8 9.3
2017-Feb-02 14:33N 34°36' E 033°13'1413.8
2017-Feb-02 13:33N 34°24' E 033°03'49312.2
2017-Jan-31 21:08N 37°39' E 023°43'814.1
2017-Jan-31 20:33N 37°46' E 023°38'9 8.7
2017-Jan-31 19:33N 37°52' E 023°30'0 0.1
2017-Jan-31 18:31N 37°52' E 023°30'0 0.0
2017-Jan-31 17:31N 37°52' E 023°30'0 0.0
2017-Jan-31 16:31N 37°52' E 023°30'0 0.0
2017-Jan-31 15:28N 37°52' E 023°30'0 0.0
2017-Jan-31 14:31N 37°52' E 023°30'0 0.0
2017-Jan-31 13:28N 37°52' E 023°30'0 0.0
2017-Jan-31 12:25N 37°52' E 023°30'0 0.0
2017-Jan-31 11:31N 37°52' E 023°30'0 0.0
2017-Jan-31 10:31N 37°52' E 023°30'0 0.0
2017-Jan-31 09:28N 37°52' E 023°30'0 0.0
2017-Jan-31 08:31N 37°52' E 023°30'0 0.0
2017-Jan-31 07:31N 37°52' E 023°30'  

Dump ship's entire track history